Rankin, Texas
Current Conditions -  °F | °C
As of 12:53 AM on Thursday 23 Oct 2014 (Local Time) from KMAF Reporting Station
Scattered Clouds Scattered Clouds  
Wind Chill: 59°   Ceiling: Unl
Heat Index: 59°   Visibility: 10mi
Dew Point: 53°   Wind: 6mph
Humidity: 81%   Direction: 180°S
Pressure: 30.13"   Gusts: NA
Location:  31.22°N, 101.94°W
Report Text: KMAF 230553Z AUTO 18005KT 10SM SCT011 15/12 A3013 RMK AO2 SLP170 T01500117 10217 20150 402440150 50001
Loading
Personal Weather Stations






























Interactive Weather Map
Tropical Storm Tracking
New forecast layout! Learn more

10-Day Weather Forecast

Advertisements
Track Severe Weather on mobile